<?xml version="1.0" encoding="UTF-8" standalone="no" ?>
<gpx xmlns="http://www.topografix.com/GPX/1/1" xmlns:xsi="http://www.w3.org/2001/XMLSchema-instance" xsi:schemaLocation="http://www.topografix.com/GPX/1/1 http://www.topografix.com/GPX/1/1/gpx.xsd" version="1.1" creator="VisuGPX - https://www.visugpx.com">
  <metadata>
    <name>Boucle de la mairie vers Barbin</name>
  </metadata>
  <trk>
    <name><![CDATA[12595119-la mairie lebas bois le parc la mairie]]></name>
    <trkseg>
      <trkpt lat="46.95916" lon="-0.88662">
        <ele>112</ele>
        <time>2021-02-25T10:00:46Z</time>
      </trkpt>
      <trkpt lat="46.95928" lon="-0.88632">
        <ele>112</ele>
        <time>2021-02-25T10:01:18Z</time>
      </trkpt>
      <trkpt lat="46.9593" lon="-0.88611">
        <ele>112</ele>
        <time>2021-02-25T10:01:37Z</time>
      </trkpt>
      <trkpt lat="46.95961" lon="-0.88612">
        <ele>113</ele>
        <time>2021-02-25T10:02:18Z</time>
      </trkpt>
      <trkpt lat="46.9598" lon="-0.88622">
        <ele>113</ele>
        <time>2021-02-25T10:02:45Z</time>
      </trkpt>
      <trkpt lat="46.95993" lon="-0.8865">
        <ele>113</ele>
        <time>2021-02-25T10:03:16Z</time>
      </trkpt>
      <trkpt lat="46.96004" lon="-0.88677">
        <ele>113</ele>
        <time>2021-02-25T10:03:45Z</time>
      </trkpt>
      <trkpt lat="46.96021" lon="-0.887">
        <ele>113</ele>
        <time>2021-02-25T10:04:16Z</time>
      </trkpt>
      <trkpt lat="46.96043" lon="-0.88687">
        <ele>112</ele>
        <time>2021-02-25T10:04:47Z</time>
      </trkpt>
      <trkpt lat="46.9604" lon="-0.88664">
        <ele>113</ele>
        <time>2021-02-25T10:05:09Z</time>
      </trkpt>
      <trkpt lat="46.96047" lon="-0.88644">
        <ele>113</ele>
        <time>2021-02-25T10:05:29Z</time>
      </trkpt>
      <trkpt lat="46.96059" lon="-0.88621">
        <ele>113</ele>
        <time>2021-02-25T10:05:55Z</time>
      </trkpt>
      <trkpt lat="46.96071" lon="-0.88602">
        <ele>113</ele>
        <time>2021-02-25T10:06:19Z</time>
      </trkpt>
      <trkpt lat="46.96082" lon="-0.88583">
        <ele>113</ele>
        <time>2021-02-25T10:06:42Z</time>
      </trkpt>
      <trkpt lat="46.96097" lon="-0.88568">
        <ele>116</ele>
        <time>2021-02-25T10:07:06Z</time>
      </trkpt>
      <trkpt lat="46.96109" lon="-0.88552">
        <ele>118</ele>
        <time>2021-02-25T10:07:28Z</time>
      </trkpt>
      <trkpt lat="46.96125" lon="-0.88538">
        <ele>120</ele>
        <time>2021-02-25T10:07:53Z</time>
      </trkpt>
      <trkpt lat="46.96136" lon="-0.88562">
        <ele>120</ele>
        <time>2021-02-25T10:08:19Z</time>
      </trkpt>
      <trkpt lat="46.96151" lon="-0.88589">
        <ele>119</ele>
        <time>2021-02-25T10:08:51Z</time>
      </trkpt>
      <trkpt lat="46.96185" lon="-0.88659">
        <ele>122</ele>
        <time>2021-02-25T10:10:09Z</time>
      </trkpt>
      <trkpt lat="46.96198" lon="-0.88687">
        <ele>123</ele>
        <time>2021-02-25T10:10:40Z</time>
      </trkpt>
      <trkpt lat="46.96205" lon="-0.88704">
        <ele>123</ele>
        <time>2021-02-25T10:10:58Z</time>
      </trkpt>
      <trkpt lat="46.96231" lon="-0.88719">
        <ele>126</ele>
        <time>2021-02-25T10:11:35Z</time>
      </trkpt>
      <trkpt lat="46.96212" lon="-0.88769">
        <ele>119</ele>
        <time>2021-02-25T10:12:27Z</time>
      </trkpt>
      <trkpt lat="46.96198" lon="-0.88797">
        <ele>116</ele>
        <time>2021-02-25T10:12:59Z</time>
      </trkpt>
      <trkpt lat="46.96191" lon="-0.88814">
        <ele>114</ele>
        <time>2021-02-25T10:13:17Z</time>
      </trkpt>
      <trkpt lat="46.96216" lon="-0.88839">
        <ele>115</ele>
        <time>2021-02-25T10:13:57Z</time>
      </trkpt>
      <trkpt lat="46.96245" lon="-0.88869">
        <ele>116</ele>
        <time>2021-02-25T10:14:45Z</time>
      </trkpt>
      <trkpt lat="46.96278" lon="-0.88902">
        <ele>116</ele>
        <time>2021-02-25T10:15:38Z</time>
      </trkpt>
      <trkpt lat="46.96291" lon="-0.88932">
        <ele>115</ele>
        <time>2021-02-25T10:16:10Z</time>
      </trkpt>
      <trkpt lat="46.96317" lon="-0.8898">
        <ele>114</ele>
        <time>2021-02-25T10:17:06Z</time>
      </trkpt>
      <trkpt lat="46.96352" lon="-0.89102">
        <ele>113</ele>
        <time>2021-02-25T10:19:07Z</time>
      </trkpt>
      <trkpt lat="46.96354" lon="-0.89126">
        <ele>113</ele>
        <time>2021-02-25T10:19:29Z</time>
      </trkpt>
      <trkpt lat="46.96322" lon="-0.89136">
        <ele>111</ele>
        <time>2021-02-25T10:20:12Z</time>
      </trkpt>
      <trkpt lat="46.96324" lon="-0.89364">
        <ele>112</ele>
        <time>2021-02-25T10:23:40Z</time>
      </trkpt>
      <trkpt lat="46.96333" lon="-0.89431">
        <ele>116</ele>
        <time>2021-02-25T10:24:42Z</time>
      </trkpt>
      <trkpt lat="46.96325" lon="-0.89466">
        <ele>120</ele>
        <time>2021-02-25T10:25:16Z</time>
      </trkpt>
      <trkpt lat="46.96235" lon="-0.89536">
        <ele>117</ele>
        <time>2021-02-25T10:27:32Z</time>
      </trkpt>
      <trkpt lat="46.96224" lon="-0.89554">
        <ele>116</ele>
        <time>2021-02-25T10:27:54Z</time>
      </trkpt>
      <trkpt lat="46.96229" lon="-0.89569">
        <ele>116</ele>
        <time>2021-02-25T10:28:09Z</time>
      </trkpt>
      <trkpt lat="46.96316" lon="-0.89646">
        <ele>118</ele>
        <time>2021-02-25T10:30:25Z</time>
      </trkpt>
      <trkpt lat="46.96336" lon="-0.89666">
        <ele>118</ele>
        <time>2021-02-25T10:30:57Z</time>
      </trkpt>
      <trkpt lat="46.96351" lon="-0.89704">
        <ele>117</ele>
        <time>2021-02-25T10:31:37Z</time>
      </trkpt>
      <trkpt lat="46.96408" lon="-0.8975">
        <ele>118</ele>
        <time>2021-02-25T10:33:04Z</time>
      </trkpt>
      <trkpt lat="46.96431" lon="-0.89768">
        <ele>119</ele>
        <time>2021-02-25T10:33:38Z</time>
      </trkpt>
      <trkpt lat="46.96451" lon="-0.89823">
        <ele>118</ele>
        <time>2021-02-25T10:34:35Z</time>
      </trkpt>
      <trkpt lat="46.96445" lon="-0.89841">
        <ele>116</ele>
        <time>2021-02-25T10:34:53Z</time>
      </trkpt>
      <trkpt lat="46.96445" lon="-0.89862">
        <ele>116</ele>
        <time>2021-02-25T10:35:13Z</time>
      </trkpt>
      <trkpt lat="46.96443" lon="-0.89871">
        <ele>115</ele>
        <time>2021-02-25T10:35:21Z</time>
      </trkpt>
      <trkpt lat="46.96467" lon="-0.89986">
        <ele>119</ele>
        <time>2021-02-25T10:37:11Z</time>
      </trkpt>
      <trkpt lat="46.96465" lon="-0.90048">
        <ele>115</ele>
        <time>2021-02-25T10:38:07Z</time>
      </trkpt>
      <trkpt lat="46.96484" lon="-0.90103">
        <ele>113</ele>
        <time>2021-02-25T10:39:03Z</time>
      </trkpt>
      <trkpt lat="46.965" lon="-0.9012">
        <ele>112</ele>
        <time>2021-02-25T10:39:30Z</time>
      </trkpt>
      <trkpt lat="46.96529" lon="-0.90152">
        <ele>111</ele>
        <time>2021-02-25T10:40:18Z</time>
      </trkpt>
      <trkpt lat="46.96564" lon="-0.90155">
        <ele>113</ele>
        <time>2021-02-25T10:41:05Z</time>
      </trkpt>
      <trkpt lat="46.96589" lon="-0.90171">
        <ele>113</ele>
        <time>2021-02-25T10:41:41Z</time>
      </trkpt>
      <trkpt lat="46.96593" lon="-0.90183">
        <ele>113</ele>
        <time>2021-02-25T10:41:54Z</time>
      </trkpt>
      <trkpt lat="46.96592" lon="-0.90204">
        <ele>111</ele>
        <time>2021-02-25T10:42:13Z</time>
      </trkpt>
      <trkpt lat="46.9662" lon="-0.9023">
        <ele>112</ele>
        <time>2021-02-25T10:42:57Z</time>
      </trkpt>
      <trkpt lat="46.96642" lon="-0.9025">
        <ele>112</ele>
        <time>2021-02-25T10:43:32Z</time>
      </trkpt>
      <trkpt lat="46.96667" lon="-0.90273">
        <ele>112</ele>
        <time>2021-02-25T10:44:11Z</time>
      </trkpt>
      <trkpt lat="46.96688" lon="-0.90297">
        <ele>113</ele>
        <time>2021-02-25T10:44:46Z</time>
      </trkpt>
      <trkpt lat="46.96719" lon="-0.90342">
        <ele>115</ele>
        <time>2021-02-25T10:45:45Z</time>
      </trkpt>
      <trkpt lat="46.96724" lon="-0.90401">
        <ele>113</ele>
        <time>2021-02-25T10:46:39Z</time>
      </trkpt>
      <trkpt lat="46.96727" lon="-0.90443">
        <ele>112</ele>
        <time>2021-02-25T10:47:17Z</time>
      </trkpt>
      <trkpt lat="46.96731" lon="-0.90469">
        <ele>111</ele>
        <time>2021-02-25T10:47:42Z</time>
      </trkpt>
      <trkpt lat="46.96767" lon="-0.90467">
        <ele>110</ele>
        <time>2021-02-25T10:48:30Z</time>
      </trkpt>
      <trkpt lat="46.96778" lon="-0.90447">
        <ele>112</ele>
        <time>2021-02-25T10:48:53Z</time>
      </trkpt>
      <trkpt lat="46.96784" lon="-0.90431">
        <ele>113</ele>
        <time>2021-02-25T10:49:10Z</time>
      </trkpt>
      <trkpt lat="46.96784" lon="-0.90415">
        <ele>114</ele>
        <time>2021-02-25T10:49:24Z</time>
      </trkpt>
      <trkpt lat="46.96777" lon="-0.90419">
        <ele>114</ele>
        <time>2021-02-25T10:49:34Z</time>
      </trkpt>
      <trkpt lat="46.96787" lon="-0.90397">
        <ele>115</ele>
        <time>2021-02-25T10:49:58Z</time>
      </trkpt>
      <trkpt lat="46.96804" lon="-0.90359">
        <ele>119</ele>
        <time>2021-02-25T10:50:40Z</time>
      </trkpt>
      <trkpt lat="46.96836" lon="-0.90324">
        <ele>122</ele>
        <time>2021-02-25T10:51:33Z</time>
      </trkpt>
      <trkpt lat="46.96863" lon="-0.90301">
        <ele>121</ele>
        <time>2021-02-25T10:52:15Z</time>
      </trkpt>
      <trkpt lat="46.96884" lon="-0.90285">
        <ele>120</ele>
        <time>2021-02-25T10:52:46Z</time>
      </trkpt>
      <trkpt lat="46.96921" lon="-0.90277">
        <ele>117</ele>
        <time>2021-02-25T10:53:36Z</time>
      </trkpt>
      <trkpt lat="46.96926" lon="-0.90286">
        <ele>116</ele>
        <time>2021-02-25T10:53:47Z</time>
      </trkpt>
      <trkpt lat="46.96899" lon="-0.90306">
        <ele>116</ele>
        <time>2021-02-25T10:54:27Z</time>
      </trkpt>
      <trkpt lat="46.96878" lon="-0.90316">
        <ele>118</ele>
        <time>2021-02-25T10:54:57Z</time>
      </trkpt>
      <trkpt lat="46.96865" lon="-0.90326">
        <ele>118</ele>
        <time>2021-02-25T10:55:16Z</time>
      </trkpt>
      <trkpt lat="46.96847" lon="-0.90345">
        <ele>119</ele>
        <time>2021-02-25T10:55:46Z</time>
      </trkpt>
      <trkpt lat="46.96834" lon="-0.90367">
        <ele>118</ele>
        <time>2021-02-25T10:56:12Z</time>
      </trkpt>
      <trkpt lat="46.96824" lon="-0.90392">
        <ele>116</ele>
        <time>2021-02-25T10:56:39Z</time>
      </trkpt>
      <trkpt lat="46.96812" lon="-0.90417">
        <ele>113</ele>
        <time>2021-02-25T10:57:07Z</time>
      </trkpt>
      <trkpt lat="46.96803" lon="-0.90444">
        <ele>112</ele>
        <time>2021-02-25T10:57:34Z</time>
      </trkpt>
      <trkpt lat="46.96792" lon="-0.90471">
        <ele>110</ele>
        <time>2021-02-25T10:58:03Z</time>
      </trkpt>
      <trkpt lat="46.96779" lon="-0.90505">
        <ele>108</ele>
        <time>2021-02-25T10:58:38Z</time>
      </trkpt>
      <trkpt lat="46.96763" lon="-0.90531">
        <ele>108</ele>
        <time>2021-02-25T10:59:10Z</time>
      </trkpt>
      <trkpt lat="46.96746" lon="-0.90515">
        <ele>108</ele>
        <time>2021-02-25T10:59:37Z</time>
      </trkpt>
      <trkpt lat="46.96738" lon="-0.90493">
        <ele>110</ele>
        <time>2021-02-25T11:00:00Z</time>
      </trkpt>
      <trkpt lat="46.96727" lon="-0.90498">
        <ele>111</ele>
        <time>2021-02-25T11:00:15Z</time>
      </trkpt>
      <trkpt lat="46.96718" lon="-0.90489">
        <ele>111</ele>
        <time>2021-02-25T11:00:29Z</time>
      </trkpt>
      <trkpt lat="46.96713" lon="-0.90475">
        <ele>112</ele>
        <time>2021-02-25T11:00:44Z</time>
      </trkpt>
      <trkpt lat="46.96707" lon="-0.90459">
        <ele>112</ele>
        <time>2021-02-25T11:01:00Z</time>
      </trkpt>
      <trkpt lat="46.96699" lon="-0.90451">
        <ele>111</ele>
        <time>2021-02-25T11:01:13Z</time>
      </trkpt>
      <trkpt lat="46.96689" lon="-0.9044">
        <ele>110</ele>
        <time>2021-02-25T11:01:30Z</time>
      </trkpt>
      <trkpt lat="46.96678" lon="-0.90431">
        <ele>109</ele>
        <time>2021-02-25T11:01:47Z</time>
      </trkpt>
      <trkpt lat="46.96658" lon="-0.90429">
        <ele>110</ele>
        <time>2021-02-25T11:02:14Z</time>
      </trkpt>
      <trkpt lat="46.96634" lon="-0.90437">
        <ele>116</ele>
        <time>2021-02-25T11:02:46Z</time>
      </trkpt>
      <trkpt lat="46.96618" lon="-0.90447">
        <ele>121</ele>
        <time>2021-02-25T11:03:10Z</time>
      </trkpt>
      <trkpt lat="46.96618" lon="-0.90463">
        <ele>124</ele>
        <time>2021-02-25T11:03:24Z</time>
      </trkpt>
      <trkpt lat="46.96633" lon="-0.90496">
        <ele>126</ele>
        <time>2021-02-25T11:04:00Z</time>
      </trkpt>
      <trkpt lat="46.96654" lon="-0.90541">
        <ele>124</ele>
        <time>2021-02-25T11:04:50Z</time>
      </trkpt>
      <trkpt lat="46.96669" lon="-0.90571">
        <ele>123</ele>
        <time>2021-02-25T11:05:24Z</time>
      </trkpt>
      <trkpt lat="46.96687" lon="-0.906">
        <ele>121</ele>
        <time>2021-02-25T11:06:00Z</time>
      </trkpt>
      <trkpt lat="46.967" lon="-0.9063">
        <ele>119</ele>
        <time>2021-02-25T11:06:32Z</time>
      </trkpt>
      <trkpt lat="46.96701" lon="-0.90678">
        <ele>121</ele>
        <time>2021-02-25T11:07:16Z</time>
      </trkpt>
      <trkpt lat="46.96706" lon="-0.90712">
        <ele>121</ele>
        <time>2021-02-25T11:07:47Z</time>
      </trkpt>
      <trkpt lat="46.96723" lon="-0.90736">
        <ele>118</ele>
        <time>2021-02-25T11:08:19Z</time>
      </trkpt>
      <trkpt lat="46.96809" lon="-0.9078">
        <ele>110</ele>
        <time>2021-02-25T11:10:20Z</time>
      </trkpt>
      <trkpt lat="46.96827" lon="-0.90801">
        <ele>109</ele>
        <time>2021-02-25T11:10:51Z</time>
      </trkpt>
      <trkpt lat="46.96836" lon="-0.90816">
        <ele>109</ele>
        <time>2021-02-25T11:11:09Z</time>
      </trkpt>
      <trkpt lat="46.96841" lon="-0.90847">
        <ele>110</ele>
        <time>2021-02-25T11:11:38Z</time>
      </trkpt>
      <trkpt lat="46.96833" lon="-0.90894">
        <ele>112</ele>
        <time>2021-02-25T11:12:22Z</time>
      </trkpt>
      <trkpt lat="46.96846" lon="-0.90934">
        <ele>111</ele>
        <time>2021-02-25T11:13:03Z</time>
      </trkpt>
      <trkpt lat="46.96842" lon="-0.90963">
        <ele>112</ele>
        <time>2021-02-25T11:13:30Z</time>
      </trkpt>
      <trkpt lat="46.96845" lon="-0.91011">
        <ele>112</ele>
        <time>2021-02-25T11:14:14Z</time>
      </trkpt>
      <trkpt lat="46.96833" lon="-0.91038">
        <ele>113</ele>
        <time>2021-02-25T11:14:43Z</time>
      </trkpt>
      <trkpt lat="46.96817" lon="-0.91066">
        <ele>117</ele>
        <time>2021-02-25T11:15:16Z</time>
      </trkpt>
      <trkpt lat="46.96817" lon="-0.91084">
        <ele>117</ele>
        <time>2021-02-25T11:15:33Z</time>
      </trkpt>
      <trkpt lat="46.9683" lon="-0.91105">
        <ele>113</ele>
        <time>2021-02-25T11:15:58Z</time>
      </trkpt>
      <trkpt lat="46.96823" lon="-0.91177">
        <ele>114</ele>
        <time>2021-02-25T11:17:05Z</time>
      </trkpt>
      <trkpt lat="46.96833" lon="-0.9121">
        <ele>112</ele>
        <time>2021-02-25T11:17:38Z</time>
      </trkpt>
      <trkpt lat="46.96824" lon="-0.91299">
        <ele>111</ele>
        <time>2021-02-25T11:18:59Z</time>
      </trkpt>
      <trkpt lat="46.96817" lon="-0.91315">
        <ele>111</ele>
        <time>2021-02-25T11:19:17Z</time>
      </trkpt>
      <trkpt lat="46.96806" lon="-0.91326">
        <ele>113</ele>
        <time>2021-02-25T11:19:35Z</time>
      </trkpt>
      <trkpt lat="46.96805" lon="-0.91342">
        <ele>112</ele>
        <time>2021-02-25T11:19:49Z</time>
      </trkpt>
      <trkpt lat="46.9679" lon="-0.91396">
        <ele>111</ele>
        <time>2021-02-25T11:20:42Z</time>
      </trkpt>
      <trkpt lat="46.96756" lon="-0.91427">
        <ele>113</ele>
        <time>2021-02-25T11:21:36Z</time>
      </trkpt>
      <trkpt lat="46.96749" lon="-0.91434">
        <ele>114</ele>
        <time>2021-02-25T11:21:47Z</time>
      </trkpt>
      <trkpt lat="46.96742" lon="-0.91428">
        <ele>115</ele>
        <time>2021-02-25T11:21:58Z</time>
      </trkpt>
      <trkpt lat="46.96724" lon="-0.91433">
        <ele>117</ele>
        <time>2021-02-25T11:22:22Z</time>
      </trkpt>
      <trkpt lat="46.96711" lon="-0.91441">
        <ele>118</ele>
        <time>2021-02-25T11:22:41Z</time>
      </trkpt>
      <trkpt lat="46.96687" lon="-0.91438">
        <ele>121</ele>
        <time>2021-02-25T11:23:13Z</time>
      </trkpt>
      <trkpt lat="46.96679" lon="-0.91429">
        <ele>122</ele>
        <time>2021-02-25T11:23:27Z</time>
      </trkpt>
      <trkpt lat="46.96687" lon="-0.91412">
        <ele>121</ele>
        <time>2021-02-25T11:23:46Z</time>
      </trkpt>
      <trkpt lat="46.96733" lon="-0.91399">
        <ele>118</ele>
        <time>2021-02-25T11:24:48Z</time>
      </trkpt>
      <trkpt lat="46.96753" lon="-0.9138">
        <ele>119</ele>
        <time>2021-02-25T11:25:20Z</time>
      </trkpt>
      <trkpt lat="46.96764" lon="-0.91338">
        <ele>121</ele>
        <time>2021-02-25T11:26:01Z</time>
      </trkpt>
      <trkpt lat="46.96771" lon="-0.91306">
        <ele>121</ele>
        <time>2021-02-25T11:26:31Z</time>
      </trkpt>
      <trkpt lat="46.96776" lon="-0.91277">
        <ele>121</ele>
        <time>2021-02-25T11:26:59Z</time>
      </trkpt>
      <trkpt lat="46.96783" lon="-0.91234">
        <ele>122</ele>
        <time>2021-02-25T11:27:39Z</time>
      </trkpt>
      <trkpt lat="46.96782" lon="-0.91203">
        <ele>123</ele>
        <time>2021-02-25T11:28:07Z</time>
      </trkpt>
      <trkpt lat="46.96782" lon="-0.91163">
        <ele>124</ele>
        <time>2021-02-25T11:28:44Z</time>
      </trkpt>
      <trkpt lat="46.9677" lon="-0.9112">
        <ele>129</ele>
        <time>2021-02-25T11:29:26Z</time>
      </trkpt>
      <trkpt lat="46.96763" lon="-0.91091">
        <ele>132</ele>
        <time>2021-02-25T11:29:54Z</time>
      </trkpt>
      <trkpt lat="46.96741" lon="-0.91089">
        <ele>137</ele>
        <time>2021-02-25T11:30:23Z</time>
      </trkpt>
      <trkpt lat="46.96732" lon="-0.91063">
        <ele>137</ele>
        <time>2021-02-25T11:30:50Z</time>
      </trkpt>
      <trkpt lat="46.96721" lon="-0.91014">
        <ele>137</ele>
        <time>2021-02-25T11:31:37Z</time>
      </trkpt>
      <trkpt lat="46.96713" lon="-0.90983">
        <ele>138</ele>
        <time>2021-02-25T11:32:07Z</time>
      </trkpt>
      <trkpt lat="46.96706" lon="-0.90963">
        <ele>140</ele>
        <time>2021-02-25T11:32:27Z</time>
      </trkpt>
      <trkpt lat="46.96699" lon="-0.90917">
        <ele>141</ele>
        <time>2021-02-25T11:33:10Z</time>
      </trkpt>
      <trkpt lat="46.96623" lon="-0.90899">
        <ele>148</ele>
        <time>2021-02-25T11:34:53Z</time>
      </trkpt>
      <trkpt lat="46.96596" lon="-0.90895">
        <ele>151</ele>
        <time>2021-02-25T11:35:29Z</time>
      </trkpt>
      <trkpt lat="46.96579" lon="-0.90895">
        <ele>152</ele>
        <time>2021-02-25T11:35:52Z</time>
      </trkpt>
      <trkpt lat="46.96554" lon="-0.90889">
        <ele>153</ele>
        <time>2021-02-25T11:36:26Z</time>
      </trkpt>
      <trkpt lat="46.96526" lon="-0.90895">
        <ele>155</ele>
        <time>2021-02-25T11:37:04Z</time>
      </trkpt>
      <trkpt lat="46.96508" lon="-0.90889">
        <ele>156</ele>
        <time>2021-02-25T11:37:28Z</time>
      </trkpt>
      <trkpt lat="46.96486" lon="-0.90858">
        <ele>159</ele>
        <time>2021-02-25T11:38:09Z</time>
      </trkpt>
      <trkpt lat="46.96479" lon="-0.90838">
        <ele>160</ele>
        <time>2021-02-25T11:38:29Z</time>
      </trkpt>
      <trkpt lat="46.96475" lon="-0.90813">
        <ele>159</ele>
        <time>2021-02-25T11:38:53Z</time>
      </trkpt>
      <trkpt lat="46.96481" lon="-0.9078">
        <ele>159</ele>
        <time>2021-02-25T11:39:24Z</time>
      </trkpt>
      <trkpt lat="46.96508" lon="-0.90821">
        <ele>159</ele>
        <time>2021-02-25T11:40:16Z</time>
      </trkpt>
      <trkpt lat="46.96538" lon="-0.90841">
        <ele>155</ele>
        <time>2021-02-25T11:41:00Z</time>
      </trkpt>
      <trkpt lat="46.96592" lon="-0.90837">
        <ele>148</ele>
        <time>2021-02-25T11:42:12Z</time>
      </trkpt>
      <trkpt lat="46.9663" lon="-0.90805">
        <ele>141</ele>
        <time>2021-02-25T11:43:10Z</time>
      </trkpt>
      <trkpt lat="46.96637" lon="-0.90784">
        <ele>139</ele>
        <time>2021-02-25T11:43:32Z</time>
      </trkpt>
      <trkpt lat="46.96647" lon="-0.90757">
        <ele>135</ele>
        <time>2021-02-25T11:44:00Z</time>
      </trkpt>
      <trkpt lat="46.96643" lon="-0.90725">
        <ele>135</ele>
        <time>2021-02-25T11:44:29Z</time>
      </trkpt>
      <trkpt lat="46.96636" lon="-0.90692">
        <ele>137</ele>
        <time>2021-02-25T11:45:01Z</time>
      </trkpt>
      <trkpt lat="46.9662" lon="-0.90661">
        <ele>142</ele>
        <time>2021-02-25T11:45:36Z</time>
      </trkpt>
      <trkpt lat="46.96607" lon="-0.90645">
        <ele>145</ele>
        <time>2021-02-25T11:45:59Z</time>
      </trkpt>
      <trkpt lat="46.96593" lon="-0.9063">
        <ele>148</ele>
        <time>2021-02-25T11:46:22Z</time>
      </trkpt>
      <trkpt lat="46.96576" lon="-0.90618">
        <ele>150</ele>
        <time>2021-02-25T11:46:47Z</time>
      </trkpt>
      <trkpt lat="46.96553" lon="-0.90554">
        <ele>147</ele>
        <time>2021-02-25T11:47:53Z</time>
      </trkpt>
      <trkpt lat="46.96532" lon="-0.90479">
        <ele>142</ele>
        <time>2021-02-25T11:49:07Z</time>
      </trkpt>
      <trkpt lat="46.96496" lon="-0.90401">
        <ele>140</ele>
        <time>2021-02-25T11:50:33Z</time>
      </trkpt>
      <trkpt lat="46.96522" lon="-0.90375">
        <ele>130</ele>
        <time>2021-02-25T11:51:15Z</time>
      </trkpt>
      <trkpt lat="46.96522" lon="-0.90364">
        <ele>128</ele>
        <time>2021-02-25T11:51:25Z</time>
      </trkpt>
      <trkpt lat="46.96545" lon="-0.90346">
        <ele>120</ele>
        <time>2021-02-25T11:51:59Z</time>
      </trkpt>
      <trkpt lat="46.96569" lon="-0.90337">
        <ele>114</ele>
        <time>2021-02-25T11:52:33Z</time>
      </trkpt>
      <trkpt lat="46.96559" lon="-0.90322">
        <ele>115</ele>
        <time>2021-02-25T11:52:52Z</time>
      </trkpt>
      <trkpt lat="46.96568" lon="-0.9031">
        <ele>112</ele>
        <time>2021-02-25T11:53:08Z</time>
      </trkpt>
      <trkpt lat="46.96546" lon="-0.90297">
        <ele>114</ele>
        <time>2021-02-25T11:53:40Z</time>
      </trkpt>
      <trkpt lat="46.96486" lon="-0.90296">
        <ele>121</ele>
        <time>2021-02-25T11:55:00Z</time>
      </trkpt>
      <trkpt lat="46.96457" lon="-0.90284">
        <ele>123</ele>
        <time>2021-02-25T11:55:40Z</time>
      </trkpt>
      <trkpt lat="46.96437" lon="-0.90258">
        <ele>122</ele>
        <time>2021-02-25T11:56:15Z</time>
      </trkpt>
      <trkpt lat="46.96418" lon="-0.90233">
        <ele>121</ele>
        <time>2021-02-25T11:56:50Z</time>
      </trkpt>
      <trkpt lat="46.96404" lon="-0.90204">
        <ele>119</ele>
        <time>2021-02-25T11:57:22Z</time>
      </trkpt>
      <trkpt lat="46.9638" lon="-0.90183">
        <ele>121</ele>
        <time>2021-02-25T11:57:59Z</time>
      </trkpt>
      <trkpt lat="46.96372" lon="-0.90167">
        <ele>120</ele>
        <time>2021-02-25T11:58:17Z</time>
      </trkpt>
      <trkpt lat="46.96355" lon="-0.90151">
        <ele>122</ele>
        <time>2021-02-25T11:58:44Z</time>
      </trkpt>
      <trkpt lat="46.96336" lon="-0.90123">
        <ele>122</ele>
        <time>2021-02-25T11:59:20Z</time>
      </trkpt>
      <trkpt lat="46.96306" lon="-0.90132">
        <ele>126</ele>
        <time>2021-02-25T12:00:01Z</time>
      </trkpt>
      <trkpt lat="46.96287" lon="-0.90136">
        <ele>128</ele>
        <time>2021-02-25T12:00:27Z</time>
      </trkpt>
      <trkpt lat="46.9627" lon="-0.90135">
        <ele>130</ele>
        <time>2021-02-25T12:00:49Z</time>
      </trkpt>
      <trkpt lat="46.9625" lon="-0.90134">
        <ele>132</ele>
        <time>2021-02-25T12:01:16Z</time>
      </trkpt>
      <trkpt lat="46.96234" lon="-0.90136">
        <ele>133</ele>
        <time>2021-02-25T12:01:38Z</time>
      </trkpt>
      <trkpt lat="46.96195" lon="-0.90046">
        <ele>133</ele>
        <time>2021-02-25T12:03:15Z</time>
      </trkpt>
      <trkpt lat="46.96224" lon="-0.90046">
        <ele>131</ele>
        <time>2021-02-25T12:03:53Z</time>
      </trkpt>
      <trkpt lat="46.96244" lon="-0.90062">
        <ele>129</ele>
        <time>2021-02-25T12:04:24Z</time>
      </trkpt>
      <trkpt lat="46.96273" lon="-0.90072">
        <ele>125</ele>
        <time>2021-02-25T12:05:03Z</time>
      </trkpt>
      <trkpt lat="46.96289" lon="-0.90077">
        <ele>123</ele>
        <time>2021-02-25T12:05:25Z</time>
      </trkpt>
      <trkpt lat="46.96306" lon="-0.90059">
        <ele>121</ele>
        <time>2021-02-25T12:05:53Z</time>
      </trkpt>
      <trkpt lat="46.963" lon="-0.90037">
        <ele>121</ele>
        <time>2021-02-25T12:06:15Z</time>
      </trkpt>
      <trkpt lat="46.96289" lon="-0.90012">
        <ele>123</ele>
        <time>2021-02-25T12:06:42Z</time>
      </trkpt>
      <trkpt lat="46.96281" lon="-0.89987">
        <ele>125</ele>
        <time>2021-02-25T12:07:07Z</time>
      </trkpt>
      <trkpt lat="46.96279" lon="-0.89959">
        <ele>126</ele>
        <time>2021-02-25T12:07:33Z</time>
      </trkpt>
      <trkpt lat="46.96273" lon="-0.89939">
        <ele>128</ele>
        <time>2021-02-25T12:07:53Z</time>
      </trkpt>
      <trkpt lat="46.96265" lon="-0.89919">
        <ele>130</ele>
        <time>2021-02-25T12:08:14Z</time>
      </trkpt>
      <trkpt lat="46.96265" lon="-0.89894">
        <ele>130</ele>
        <time>2021-02-25T12:08:37Z</time>
      </trkpt>
      <trkpt lat="46.96265" lon="-0.89872">
        <ele>130</ele>
        <time>2021-02-25T12:08:57Z</time>
      </trkpt>
      <trkpt lat="46.96259" lon="-0.89852">
        <ele>131</ele>
        <time>2021-02-25T12:09:16Z</time>
      </trkpt>
      <trkpt lat="46.9625" lon="-0.89827">
        <ele>132</ele>
        <time>2021-02-25T12:09:42Z</time>
      </trkpt>
      <trkpt lat="46.9623" lon="-0.89806">
        <ele>129</ele>
        <time>2021-02-25T12:10:15Z</time>
      </trkpt>
      <trkpt lat="46.96212" lon="-0.89794">
        <ele>128</ele>
        <time>2021-02-25T12:10:41Z</time>
      </trkpt>
      <trkpt lat="46.96193" lon="-0.89784">
        <ele>129</ele>
        <time>2021-02-25T12:11:08Z</time>
      </trkpt>
      <trkpt lat="46.96175" lon="-0.89766">
        <ele>129</ele>
        <time>2021-02-25T12:11:37Z</time>
      </trkpt>
      <trkpt lat="46.96164" lon="-0.89736">
        <ele>126</ele>
        <time>2021-02-25T12:12:08Z</time>
      </trkpt>
      <trkpt lat="46.96156" lon="-0.89711">
        <ele>124</ele>
        <time>2021-02-25T12:12:34Z</time>
      </trkpt>
      <trkpt lat="46.96148" lon="-0.89677">
        <ele>121</ele>
        <time>2021-02-25T12:13:06Z</time>
      </trkpt>
      <trkpt lat="46.96153" lon="-0.89656">
        <ele>118</ele>
        <time>2021-02-25T12:13:27Z</time>
      </trkpt>
      <trkpt lat="46.96156" lon="-0.89643">
        <ele>117</ele>
        <time>2021-02-25T12:13:39Z</time>
      </trkpt>
      <trkpt lat="46.96174" lon="-0.89638">
        <ele>114</ele>
        <time>2021-02-25T12:14:04Z</time>
      </trkpt>
      <trkpt lat="46.96184" lon="-0.89651">
        <ele>114</ele>
        <time>2021-02-25T12:14:21Z</time>
      </trkpt>
      <trkpt lat="46.96189" lon="-0.89674">
        <ele>115</ele>
        <time>2021-02-25T12:14:43Z</time>
      </trkpt>
      <trkpt lat="46.96195" lon="-0.89698">
        <ele>117</ele>
        <time>2021-02-25T12:15:07Z</time>
      </trkpt>
      <trkpt lat="46.96215" lon="-0.89733">
        <ele>119</ele>
        <time>2021-02-25T12:15:48Z</time>
      </trkpt>
      <trkpt lat="46.96247" lon="-0.89753">
        <ele>116</ele>
        <time>2021-02-25T12:16:35Z</time>
      </trkpt>
      <trkpt lat="46.96286" lon="-0.89766">
        <ele>115</ele>
        <time>2021-02-25T12:17:28Z</time>
      </trkpt>
      <trkpt lat="46.96314" lon="-0.8978">
        <ele>114</ele>
        <time>2021-02-25T12:18:08Z</time>
      </trkpt>
      <trkpt lat="46.9634" lon="-0.89725">
        <ele>114</ele>
        <time>2021-02-25T12:19:08Z</time>
      </trkpt>
      <trkpt lat="46.96338" lon="-0.89695">
        <ele>116</ele>
        <time>2021-02-25T12:19:36Z</time>
      </trkpt>
      <trkpt lat="46.96323" lon="-0.89671">
        <ele>117</ele>
        <time>2021-02-25T12:20:06Z</time>
      </trkpt>
      <trkpt lat="46.96301" lon="-0.89648">
        <ele>117</ele>
        <time>2021-02-25T12:20:42Z</time>
      </trkpt>
      <trkpt lat="46.96284" lon="-0.89633">
        <ele>116</ele>
        <time>2021-02-25T12:21:08Z</time>
      </trkpt>
      <trkpt lat="46.96256" lon="-0.89606">
        <ele>115</ele>
        <time>2021-02-25T12:21:53Z</time>
      </trkpt>
      <trkpt lat="46.96229" lon="-0.89586">
        <ele>115</ele>
        <time>2021-02-25T12:22:33Z</time>
      </trkpt>
      <trkpt lat="46.96215" lon="-0.89562">
        <ele>115</ele>
        <time>2021-02-25T12:23:02Z</time>
      </trkpt>
      <trkpt lat="46.96295" lon="-0.89502">
        <ele>121</ele>
        <time>2021-02-25T12:25:02Z</time>
      </trkpt>
      <trkpt lat="46.96337" lon="-0.89462">
        <ele>120</ele>
        <time>2021-02-25T12:26:09Z</time>
      </trkpt>
      <trkpt lat="46.96342" lon="-0.89433">
        <ele>117</ele>
        <time>2021-02-25T12:26:36Z</time>
      </trkpt>
      <trkpt lat="46.96336" lon="-0.89372">
        <ele>113</ele>
        <time>2021-02-25T12:27:32Z</time>
      </trkpt>
      <trkpt lat="46.9633" lon="-0.89309">
        <ele>110</ele>
        <time>2021-02-25T12:28:30Z</time>
      </trkpt>
      <trkpt lat="46.96335" lon="-0.89253">
        <ele>109</ele>
        <time>2021-02-25T12:29:21Z</time>
      </trkpt>
      <trkpt lat="46.9633" lon="-0.89207">
        <ele>110</ele>
        <time>2021-02-25T12:30:04Z</time>
      </trkpt>
      <trkpt lat="46.96332" lon="-0.89152">
        <ele>111</ele>
        <time>2021-02-25T12:30:54Z</time>
      </trkpt>
      <trkpt lat="46.96346" lon="-0.89135">
        <ele>112</ele>
        <time>2021-02-25T12:31:18Z</time>
      </trkpt>
      <trkpt lat="46.96339" lon="-0.89105">
        <ele>112</ele>
        <time>2021-02-25T12:31:47Z</time>
      </trkpt>
      <trkpt lat="46.96334" lon="-0.89075">
        <ele>112</ele>
        <time>2021-02-25T12:32:15Z</time>
      </trkpt>
      <trkpt lat="46.96322" lon="-0.89035">
        <ele>113</ele>
        <time>2021-02-25T12:32:55Z</time>
      </trkpt>
      <trkpt lat="46.9631" lon="-0.88988">
        <ele>113</ele>
        <time>2021-02-25T12:33:41Z</time>
      </trkpt>
      <trkpt lat="46.96295" lon="-0.88964">
        <ele>114</ele>
        <time>2021-02-25T12:34:10Z</time>
      </trkpt>
      <trkpt lat="46.96271" lon="-0.88908">
        <ele>115</ele>
        <time>2021-02-25T12:35:11Z</time>
      </trkpt>
      <trkpt lat="46.96246" lon="-0.88883">
        <ele>115</ele>
        <time>2021-02-25T12:35:51Z</time>
      </trkpt>
      <trkpt lat="46.96224" lon="-0.88859">
        <ele>115</ele>
        <time>2021-02-25T12:36:28Z</time>
      </trkpt>
      <trkpt lat="46.96199" lon="-0.88839">
        <ele>114</ele>
        <time>2021-02-25T12:37:06Z</time>
      </trkpt>
      <trkpt lat="46.96169" lon="-0.88803">
        <ele>112</ele>
        <time>2021-02-25T12:37:57Z</time>
      </trkpt>
      <trkpt lat="46.96141" lon="-0.88783">
        <ele>112</ele>
        <time>2021-02-25T12:38:39Z</time>
      </trkpt>
      <trkpt lat="46.96104" lon="-0.88758">
        <ele>112</ele>
        <time>2021-02-25T12:39:33Z</time>
      </trkpt>
      <trkpt lat="46.96076" lon="-0.88744">
        <ele>112</ele>
        <time>2021-02-25T12:40:13Z</time>
      </trkpt>
      <trkpt lat="46.9606" lon="-0.88736">
        <ele>112</ele>
        <time>2021-02-25T12:40:35Z</time>
      </trkpt>
      <trkpt lat="46.96029" lon="-0.88733">
        <ele>113</ele>
        <time>2021-02-25T12:41:17Z</time>
      </trkpt>
      <trkpt lat="46.96023" lon="-0.88685">
        <ele>113</ele>
        <time>2021-02-25T12:42:01Z</time>
      </trkpt>
      <trkpt lat="46.95988" lon="-0.88693">
        <ele>113</ele>
        <time>2021-02-25T12:42:49Z</time>
      </trkpt>
      <trkpt lat="46.95956" lon="-0.88695">
        <ele>112</ele>
        <time>2021-02-25T12:43:31Z</time>
      </trkpt>
      <trkpt lat="46.95948" lon="-0.8867">
        <ele>112</ele>
        <time>2021-02-25T12:43:56Z</time>
      </trkpt>
      <trkpt lat="46.95919" lon="-0.88674">
        <ele>112</ele>
        <time>2021-02-25T12:44:35Z</time>
      </trkpt>
      <trkpt lat="46.95904" lon="-0.88673">
        <ele>112</ele>
        <time>2021-02-25T12:44:55Z</time>
      </trkpt>
    </trkseg>
  </trk>
</gpx>